createdAt,value
2023-04-21T00:02:13.993Z,13.98
2023-04-21T00:04:40.548Z,13.63
2023-04-21T00:07:07.156Z,13.65
2023-04-21T03:41:47.990Z,17.58
2023-04-21T03:44:14.478Z,17.92
2023-04-21T03:46:41.008Z,18.35
2023-04-21T03:49:07.488Z,17.73
2023-04-21T03:51:33.964Z,18.23
2023-04-21T03:54:00.448Z,16.92
2023-04-21T03:56:26.976Z,18.67
2023-04-21T03:58:54.827Z,17.58
2023-04-21T04:01:21.312Z,17.58
2023-04-21T04:03:47.949Z,17.30
2023-04-21T04:06:14.665Z,19.02
2023-04-21T04:08:41.149Z,17.40
2023-04-21T04:11:07.699Z,18.48
2023-04-21T04:13:34.219Z,18.17
2023-04-21T04:16:02.127Z,18.38
2023-04-21T04:18:28.646Z,18.50
2023-04-21T04:20:55.237Z,19.80
2023-04-21T04:23:21.689Z,18.73
2023-04-21T04:25:48.235Z,19.45
2023-04-21T04:28:14.781Z,18.63
2023-04-21T04:30:41.403Z,19.15
2023-04-21T04:33:09.256Z,19.65
2023-04-21T04:35:35.808Z,18.77
2023-04-21T04:38:02.331Z,18.85
2023-04-21T04:40:28.778Z,20.40
2023-04-21T04:42:55.288Z,19.98
2023-04-21T04:45:21.948Z,19.33
2023-04-21T04:47:49.294Z,20.10
2023-04-21T04:50:17.185Z,20.92
2023-04-21T04:52:43.676Z,19.70
2023-04-21T04:55:10.180Z,20.48
2023-04-21T04:57:36.674Z,20.13
2023-04-21T05:00:03.463Z,20.25
2023-04-21T05:02:29.978Z,19.95
2023-04-21T05:04:56.762Z,19.92
2023-04-21T05:07:24.591Z,20.60
2023-04-21T05:09:51.141Z,20.10
2023-04-21T05:12:17.613Z,21.17
2023-04-21T05:14:44.112Z,19.65
2023-04-21T05:17:10.632Z,20.58
2023-04-21T05:19:37.236Z,21.13
2023-04-21T05:22:03.719Z,20.50
2023-04-21T05:24:31.587Z,20.38
2023-04-21T05:26:58.138Z,20.48
2023-04-21T05:29:24.716Z,20.10
2023-04-21T05:31:51.222Z,20.83
2023-04-21T05:34:17.913Z,20.98
2023-04-21T05:36:44.651Z,20.30
2023-04-21T05:39:11.117Z,20.20
2023-04-21T05:41:38.921Z,19.67
2023-04-21T05:44:05.497Z,19.25
2023-04-21T05:46:32.142Z,19.88
2023-04-21T05:48:58.761Z,20.73
2023-04-21T05:51:25.263Z,20.35
2023-04-21T05:53:51.806Z,19.73
2023-04-21T05:56:18.423Z,20.65
2023-04-21T05:58:46.214Z,19.80
2023-04-21T06:01:12.723Z,19.38
2023-04-21T06:03:39.366Z,20.35
2023-04-21T06:06:06.494Z,20.58
2023-04-21T06:08:33.240Z,20.05
2023-04-21T06:10:59.730Z,20.88
2023-04-21T06:13:26.181Z,20.00
2023-04-21T06:15:54.144Z,19.90
2023-04-21T06:18:20.669Z,20.25
2023-04-21T06:20:50.341Z,21.48
2023-04-21T06:23:16.861Z,21.83
2023-04-21T06:25:43.369Z,21.90
2023-04-21T06:28:09.853Z,21.27
2023-04-21T06:30:36.338Z,21.55
2023-04-21T06:33:04.254Z,20.85
2023-04-21T06:35:31.034Z,22.00
2023-04-21T06:37:57.507Z,20.67
2023-04-21T06:40:23.984Z,20.90
2023-04-21T06:42:50.486Z,20.92
2023-04-21T06:45:16.967Z,20.70
2023-04-21T06:47:43.512Z,21.17
2023-04-21T06:50:11.550Z,19.73
2023-04-21T06:52:38.018Z,21.65
2023-04-21T06:55:05.573Z,19.73
2023-04-21T06:57:32.059Z,20.05
2023-04-21T06:59:58.605Z,19.95
2023-04-21T07:02:25.186Z,19.73
2023-04-21T07:04:51.841Z,19.10
2023-04-21T07:07:19.762Z,19.42
2023-04-21T07:09:46.349Z,19.50
2023-04-21T07:12:12.859Z,18.95
2023-04-21T07:14:39.365Z,19.15
2023-04-21T07:17:05.919Z,20.98
2023-04-21T07:19:32.511Z,17.55
2023-04-21T07:21:59.000Z,18.63
2023-04-21T07:24:26.903Z,18.88
2023-04-21T07:26:53.431Z,19.08
2023-04-21T07:29:20.108Z,17.70
2023-04-21T07:31:46.727Z,18.85
2023-04-21T07:34:13.194Z,17.88
2023-04-21T07:36:39.747Z,17.73
2023-04-21T07:39:06.213Z,17.13
2023-04-21T07:41:34.086Z,17.30
2023-04-21T07:44:00.617Z,16.65
2023-04-21T07:46:27.163Z,18.50
2023-04-21T07:48:53.702Z,17.17
2023-04-21T07:51:20.148Z,16.35
2023-04-21T07:53:46.674Z,16.15
2023-04-21T07:56:13.252Z,16.25
2023-04-21T07:58:41.126Z,16.70
2023-04-21T08:01:07.889Z,15.75
2023-04-21T08:03:34.478Z,15.20
2023-04-21T08:06:01.722Z,16.38
2023-04-21T08:08:30.133Z,16.55
2023-04-21T08:10:57.990Z,16.33
2023-04-21T08:13:24.512Z,16.42
2023-04-21T08:15:52.757Z,16.88
2023-04-21T08:18:22.207Z,15.90
2023-04-21T08:20:49.072Z,16.67
2023-04-21T08:23:15.775Z,15.77
2023-04-21T08:25:42.338Z,15.68
2023-04-21T08:28:08.864Z,15.95
2023-04-21T08:30:35.442Z,16.20
2023-04-21T08:33:03.550Z,15.85
2023-04-21T08:35:30.215Z,15.02
2023-04-21T08:37:56.755Z,15.02
2023-04-21T08:40:32.107Z,15.07
2023-04-21T08:42:59.538Z,14.25
2023-04-21T08:45:27.808Z,15.40
2023-04-21T08:47:55.763Z,13.45
2023-04-21T08:50:27.210Z,13.50
2023-04-21T08:52:54.327Z,14.45
2023-04-21T08:55:25.217Z,13.32
2023-04-21T08:57:51.736Z,14.85
2023-04-21T09:00:18.650Z,14.45
2023-04-21T09:03:00.868Z,13.77
2023-04-21T09:05:31.159Z,12.50
2023-04-21T09:08:08.595Z,12.82
2023-04-21T09:10:42.809Z,13.10
2023-04-21T09:13:09.538Z,13.40
2023-04-21T09:15:39.149Z,14.25
2023-04-21T09:18:11.082Z,13.60
2023-04-21T09:20:39.054Z,13.50
2023-04-21T09:23:05.924Z,13.73
2023-04-21T09:25:33.112Z,13.48
2023-04-21T09:28:00.261Z,12.95
2023-04-21T09:30:26.947Z,12.30
2023-04-21T09:32:56.952Z,12.80
2023-04-21T09:35:27.868Z,12.73
2023-04-21T09:37:55.680Z,12.30
2023-04-21T09:40:22.325Z,11.15
2023-04-21T09:42:48.835Z,12.05
2023-04-21T09:47:49.156Z,10.27
2023-04-21T09:50:19.661Z,10.82
2023-04-21T09:52:53.075Z,11.02
2023-04-21T09:55:24.820Z,11.27
2023-04-21T09:57:54.092Z,12.10
2023-04-21T10:00:22.707Z,10.95
2023-04-21T10:02:51.182Z,12.13
2023-04-21T10:05:17.969Z,10.50
2023-04-21T10:07:45.350Z,10.75
2023-04-21T10:10:19.022Z,11.80
2023-04-21T10:12:47.034Z,12.70
2023-04-21T10:15:29.728Z,11.05
2023-04-21T10:18:11.344Z,10.88
2023-04-21T10:20:51.191Z,10.65
2023-04-21T10:23:26.704Z,11.95
2023-04-21T10:25:53.228Z,11.40
2023-04-21T10:28:38.607Z,10.70
2023-04-21T10:31:17.922Z,11.70
2023-04-21T10:34:12.619Z,13.48
2023-04-21T10:36:47.063Z,13.15
2023-04-21T10:39:26.219Z,13.52
2023-04-21T10:41:55.543Z,12.20
2023-04-21T10:44:23.357Z,12.82
2023-04-21T10:46:51.112Z,12.25
2023-04-21T10:49:22.677Z,12.93
2023-04-21T10:52:06.049Z,12.20
2023-04-21T10:54:37.869Z,11.73
2023-04-21T10:57:07.143Z,11.63
2023-04-21T10:59:36.219Z,11.93
2023-04-21T11:02:03.007Z,12.43
2023-04-21T11:04:31.608Z,11.27
2023-04-21T11:07:10.280Z,11.05
2023-04-21T11:09:37.936Z,11.27
2023-04-21T11:12:07.034Z,11.10
2023-04-21T11:14:37.125Z,11.25
2023-04-21T11:17:03.970Z,10.13
2023-04-21T11:19:32.259Z,9.95
2023-04-21T11:21:58.858Z,9.48
2023-04-21T11:24:25.494Z,8.52
2023-04-21T11:26:51.974Z,10.68
2023-04-21T11:29:18.475Z,10.40
2023-04-21T11:31:46.661Z,9.55
2023-04-21T11:34:14.002Z,9.88
2023-04-21T11:36:42.059Z,9.30
2023-04-21T11:39:10.247Z,9.77
2023-04-21T11:41:39.666Z,9.48
2023-04-21T11:44:06.164Z,9.95
2023-04-21T11:46:32.974Z,10.15
2023-04-21T11:49:02.552Z,10.75
2023-04-21T11:51:33.482Z,11.52
2023-04-21T11:54:00.271Z,11.60
2023-04-21T11:56:26.877Z,10.63
2023-04-21T11:58:53.664Z,9.50
2023-04-21T12:01:21.312Z,10.27
2023-04-21T12:03:52.348Z,10.50
2023-04-21T12:06:24.311Z,11.05
2023-04-21T12:08:55.718Z,11.50
2023-04-21T12:11:23.189Z,10.52
2023-04-21T12:13:49.787Z,10.88
2023-04-21T12:16:16.291Z,10.02
2023-04-21T12:18:42.821Z,10.60
2023-04-21T12:21:09.324Z,11.35
2023-04-21T12:23:37.131Z,10.25
2023-04-21T12:26:03.807Z,11.73
2023-04-21T12:28:30.285Z,10.82
2023-04-21T12:30:56.800Z,11.25
2023-04-21T12:33:23.421Z,10.80
2023-04-21T12:35:50.016Z,10.27
2023-04-21T12:38:16.516Z,9.80
2023-04-21T12:40:44.342Z,9.38
2023-04-21T12:43:10.865Z,11.10
2023-04-21T12:45:37.420Z,9.23
2023-04-21T12:48:04.096Z,9.40
2023-04-21T12:50:30.767Z,10.02
2023-04-21T12:52:57.295Z,8.35
2023-04-21T12:55:23.844Z,8.02
2023-04-21T12:57:51.764Z,9.13
2023-04-21T13:00:18.641Z,8.38
2023-04-21T13:02:45.312Z,8.15
2023-04-21T13:05:12.076Z,8.10
2023-04-21T13:07:38.710Z,8.02
2023-04-21T13:10:06.275Z,8.30
2023-04-21T13:12:32.959Z,8.38
2023-04-21T13:15:00.951Z,8.43
2023-04-21T13:17:27.505Z,8.60
2023-04-21T13:19:54.033Z,8.38
2023-04-21T13:22:20.487Z,7.88
2023-04-21T13:24:46.965Z,8.98
2023-04-21T13:27:13.520Z,8.52
2023-04-21T13:29:40.121Z,9.75
2023-04-21T13:32:08.160Z,9.15
2023-04-21T13:34:34.897Z,9.00
2023-04-21T13:37:01.856Z,9.90
2023-04-21T13:39:28.398Z,9.02
2023-04-21T13:41:54.864Z,9.60
2023-04-21T13:44:21.445Z,10.50
2023-04-21T13:46:48.101Z,10.27
2023-04-21T13:49:15.997Z,9.40
2023-04-21T13:51:42.502Z,9.65
2023-04-21T13:54:09.018Z,8.07
2023-04-21T13:56:36.455Z,10.05
2023-04-21T13:59:03.090Z,10.15
2023-04-21T14:01:29.648Z,10.05
2023-04-21T14:03:56.506Z,9.90
2023-04-21T14:06:25.224Z,10.15
2023-04-21T14:08:51.740Z,9.13
2023-04-21T14:11:18.329Z,10.82
2023-04-21T14:14:00.705Z,9.32
2023-04-21T14:16:31.400Z,10.05
2023-04-21T14:18:58.111Z,10.25
2023-04-21T14:21:25.985Z,10.35
2023-04-21T14:23:52.690Z,8.77
2023-04-21T14:26:19.478Z,9.25
2023-04-21T14:28:46.069Z,9.20
2023-04-21T14:31:12.570Z,7.15
2023-04-21T14:33:39.101Z,7.57
2023-04-21T14:36:05.968Z,8.20
2023-04-21T14:38:34.599Z,10.27
2023-04-21T14:41:01.200Z,10.70
2023-04-21T14:43:27.752Z,10.75
2023-04-21T14:45:54.345Z,9.45
2023-04-21T14:48:21.190Z,9.95
2023-04-21T14:50:47.861Z,8.77
2023-04-21T14:53:14.420Z,7.78
2023-04-21T14:55:42.303Z,9.18
2023-04-21T14:58:08.877Z,8.02
2023-04-21T15:00:35.459Z,9.10
2023-04-21T15:03:02.552Z,8.80
2023-04-21T15:05:29.296Z,8.27
2023-04-21T15:07:55.836Z,7.38
2023-04-21T15:10:22.464Z,6.95
2023-04-21T15:12:50.384Z,6.60
2023-04-21T15:15:16.902Z,7.25
2023-04-21T15:17:43.388Z,5.80
2023-04-21T15:20:10.865Z,6.03
2023-04-21T15:22:37.556Z,6.88
2023-04-21T15:25:04.732Z,5.10
2023-04-21T15:27:31.272Z,6.05
2023-04-21T15:29:59.077Z,5.75
2023-04-21T15:32:25.641Z,6.43
2023-04-21T15:34:52.139Z,6.28
2023-04-21T15:37:18.627Z,6.55
2023-04-21T15:39:45.208Z,6.32
2023-04-21T15:42:11.787Z,7.43
2023-04-21T15:44:38.285Z,6.85
2023-04-21T15:47:06.196Z,6.78
2023-04-21T15:49:32.789Z,6.72
2023-04-21T15:51:59.448Z,7.15
2023-04-21T15:54:26.069Z,6.70
2023-04-21T15:56:52.566Z,6.55
2023-04-21T15:59:19.060Z,5.57
2023-04-21T16:01:45.695Z,5.88
2023-04-21T16:04:13.939Z,6.53
2023-04-21T16:06:40.648Z,6.20
2023-04-21T16:09:07.186Z,7.00
2023-04-21T16:11:33.760Z,5.38
2023-04-21T16:14:00.431Z,5.38
2023-04-21T16:16:27.008Z,4.78
2023-04-21T16:18:53.948Z,5.03
2023-04-21T16:21:21.886Z,5.00
2023-04-21T16:23:48.729Z,5.28
2023-04-21T16:26:15.370Z,5.03
2023-04-21T16:28:41.970Z,6.45
2023-04-21T16:31:08.578Z,6.40
2023-04-21T16:33:35.114Z,5.97
2023-04-21T16:36:01.652Z,6.68
2023-04-21T16:38:29.539Z,6.90
2023-04-21T16:40:56.026Z,6.72
2023-04-21T16:43:22.630Z,6.45
2023-04-21T16:45:49.290Z,7.57
2023-04-21T16:48:15.987Z,8.20
2023-04-21T16:50:42.625Z,6.53
2023-04-21T16:53:09.141Z,6.30
2023-04-21T16:55:37.127Z,5.93
2023-04-21T16:58:03.659Z,6.63
2023-04-21T17:00:30.213Z,6.07
2023-04-21T17:02:56.944Z,6.07
2023-04-21T17:05:23.514Z,6.05
2023-04-21T17:07:50.230Z,6.72
2023-04-21T17:10:17.357Z,4.60
2023-04-21T17:12:45.181Z,3.13
2023-04-21T17:15:11.843Z,3.17
2023-04-21T17:17:41.292Z,1.98
2023-04-21T17:20:09.349Z,2.03
2023-04-21T17:22:35.864Z,2.65
2023-04-21T17:25:02.545Z,3.00
2023-04-21T17:27:29.070Z,2.85
2023-04-21T17:29:57.169Z,1.95
2023-04-21T17:32:23.882Z,1.98
2023-04-21T17:34:50.456Z,1.90
2023-04-21T17:37:16.969Z,2.03
2023-04-21T17:39:43.468Z,2.67
2023-04-21T17:42:09.954Z,1.70
2023-04-21T17:44:36.670Z,1.70
2023-04-21T17:47:04.912Z,2.45
2023-04-21T17:49:31.608Z,1.90
2023-04-21T17:51:58.095Z,2.33
2023-04-21T17:54:24.748Z,2.70
2023-04-21T17:56:51.293Z,5.43
2023-04-21T17:59:17.817Z,4.88
2023-04-21T18:01:44.391Z,4.22
2023-04-21T18:04:12.470Z,3.03
2023-04-21T18:06:40.143Z,2.63
2023-04-21T18:09:06.615Z,3.53
2023-04-21T18:11:33.103Z,2.88
2023-04-21T18:13:59.945Z,2.40
2023-04-21T18:16:27.055Z,2.50
2023-04-21T18:18:53.625Z,2.47
2023-04-21T18:21:21.585Z,1.90
2023-04-21T18:23:48.097Z,1.98
2023-04-21T18:26:14.655Z,1.48
2023-04-21T18:28:41.139Z,2.17
2023-04-21T18:31:07.801Z,2.47
2023-04-21T18:33:34.529Z,2.33
2023-04-21T18:36:01.121Z,1.80
2023-04-21T18:38:28.982Z,2.00
2023-04-21T18:40:55.596Z,1.90
2023-04-21T18:43:22.341Z,2.28
2023-04-21T18:45:48.835Z,2.38
2023-04-21T18:48:15.350Z,2.50
2023-04-21T18:50:41.821Z,2.13
2023-04-21T18:53:08.917Z,1.80
2023-04-21T18:55:36.903Z,1.98
2023-04-21T18:58:03.598Z,1.90
2023-04-21T19:00:30.402Z,1.95
2023-04-21T19:02:57.171Z,1.95
2023-04-21T19:05:23.768Z,2.13
2023-04-21T19:07:50.251Z,2.17
2023-04-21T19:10:17.179Z,2.45
2023-04-21T19:12:45.120Z,2.05
2023-04-21T19:15:11.988Z,2.17
2023-04-21T19:17:38.518Z,2.20
2023-04-21T19:20:06.155Z,1.92
2023-04-21T19:22:32.664Z,2.45
2023-04-21T19:24:59.129Z,2.60
2023-04-21T19:27:25.679Z,3.00
2023-04-21T19:29:53.556Z,2.70
2023-04-21T19:32:20.307Z,2.80
2023-04-21T19:34:47.055Z,2.05
2023-04-21T19:37:13.703Z,2.10
2023-04-21T19:39:40.236Z,2.17
2023-04-21T19:42:06.704Z,2.42
2023-04-21T19:44:33.474Z,2.22
2023-04-21T19:47:01.582Z,2.55
2023-04-21T19:49:28.753Z,2.22
2023-04-21T19:51:55.209Z,2.33
2023-04-21T19:54:21.834Z,1.67
2023-04-21T19:56:48.365Z,1.30
2023-04-21T19:59:14.838Z,1.08
2023-04-21T20:01:41.714Z,1.38
2023-04-21T20:04:11.914Z,1.27
2023-04-21T20:06:38.996Z,1.08
2023-04-21T20:09:05.530Z,1.15
2023-04-21T20:11:32.128Z,1.00
2023-04-21T20:13:58.628Z,0.73
2023-04-21T20:16:26.501Z,0.90
2023-04-21T20:18:53.089Z,0.88
2023-04-21T20:21:21.040Z,1.35
2023-04-21T20:23:47.517Z,0.70
2023-04-21T20:26:14.069Z,0.95
2023-04-21T20:28:40.553Z,1.00
2023-04-21T20:31:07.108Z,1.00
2023-04-21T20:33:33.624Z,1.17
2023-04-21T20:36:00.291Z,1.20
2023-04-21T20:38:28.238Z,1.30
2023-04-21T20:40:54.752Z,1.90
2023-04-21T20:43:21.264Z,1.90
2023-04-21T20:45:47.748Z,1.60
2023-04-21T20:48:14.440Z,1.80
2023-04-21T20:50:41.289Z,1.88
2023-04-21T20:53:08.736Z,1.70
2023-04-21T20:55:36.687Z,2.47
2023-04-21T20:58:03.691Z,2.20
2023-04-21T21:00:30.313Z,1.90
2023-04-21T21:02:56.953Z,2.00
2023-04-21T21:05:23.558Z,1.73
2023-04-21T21:07:50.103Z,1.75
2023-04-21T21:10:18.454Z,2.20
2023-04-21T21:12:46.454Z,1.77
2023-04-21T21:15:12.977Z,2.00
2023-04-21T21:17:39.546Z,2.17
2023-04-21T21:20:07.414Z,2.25
2023-04-21T21:22:33.939Z,2.05
2023-04-21T21:25:00.394Z,2.13
2023-04-21T21:27:26.877Z,1.92
2023-04-21T21:29:54.683Z,2.00
2023-04-21T21:32:21.176Z,1.90
2023-04-21T21:34:47.663Z,2.40
2023-04-21T21:37:14.126Z,2.05
2023-04-21T21:39:40.735Z,2.15
2023-04-21T21:42:07.367Z,2.10
2023-04-21T21:44:33.846Z,2.03
2023-04-21T21:47:01.739Z,2.30
2023-04-21T21:49:28.268Z,2.20
2023-04-21T21:51:54.845Z,2.35
2023-04-21T21:54:21.322Z,2.20
2023-04-21T21:56:48.075Z,2.28
2023-04-21T21:59:14.710Z,2.17
2023-04-21T22:01:41.492Z,2.00
2023-04-21T22:04:09.473Z,2.50
2023-04-21T22:06:36.037Z,3.03
2023-04-21T22:09:02.581Z,2.70
2023-04-21T22:11:29.089Z,2.35
2023-04-21T22:13:55.558Z,2.17
2023-04-21T22:16:22.154Z,2.63
2023-04-21T22:18:48.734Z,3.30
2023-04-21T22:21:16.565Z,2.75
2023-04-21T22:23:43.038Z,2.78
2023-04-21T22:26:09.571Z,2.72
2023-04-21T22:28:36.154Z,3.00
2023-04-21T22:31:02.723Z,2.85
2023-04-21T22:33:29.300Z,3.15
2023-04-21T22:35:55.783Z,2.88
2023-04-21T22:38:23.575Z,2.78
2023-04-21T22:40:50.102Z,2.67
2023-04-21T22:43:16.636Z,2.92
2023-04-21T22:45:43.097Z,3.00
2023-04-21T22:48:09.641Z,3.38
2023-04-21T22:50:36.188Z,2.78
2023-04-21T22:53:02.712Z,2.92
2023-04-21T22:55:30.558Z,2.45
2023-04-21T22:57:57.109Z,3.05
2023-04-21T23:00:23.817Z,2.75
2023-04-21T23:02:50.478Z,2.67
2023-04-21T23:05:17.315Z,3.15
2023-04-21T23:07:43.820Z,3.08
2023-04-21T23:10:10.643Z,3.03
2023-04-21T23:12:38.566Z,2.80
2023-04-21T23:15:06.154Z,2.85
2023-04-21T23:17:32.728Z,3.20
2023-04-21T23:19:59.273Z,3.13
2023-04-21T23:22:26.261Z,2.85
2023-04-21T23:24:52.857Z,2.70
2023-04-21T23:27:19.388Z,2.60
2023-04-21T23:29:47.228Z,2.72
2023-04-21T23:32:13.808Z,2.58
2023-04-21T23:34:40.367Z,2.80
2023-04-21T23:37:06.867Z,2.58
2023-04-21T23:39:33.370Z,2.70
2023-04-21T23:41:59.912Z,2.63
2023-04-21T23:44:26.476Z,2.80
2023-04-21T23:46:54.288Z,2.58
2023-04-21T23:49:20.735Z,2.90
2023-04-21T23:51:47.326Z,2.85
2023-04-21T23:54:13.846Z,3.40
2023-04-21T23:56:40.345Z,3.13
2023-04-21T23:59:06.875Z,2.60
